sensor_id;sensor_type;location;lat;lon;timestamp;pressure;altitude;pressure_sealevel;temperature;humidity
70314;BME280;57725;47.526;18.986;2023-05-08T00:00:36;100227.38;;;17.70;85.56
70314;BME280;57725;47.526;18.986;2023-05-08T00:03:03;100222.19;;;17.69;85.80
70314;BME280;57725;47.526;18.986;2023-05-08T00:05:31;100217.94;;;17.66;85.42
70314;BME280;57725;47.526;18.986;2023-05-08T00:07:56;100222.28;;;17.67;85.51
70314;BME280;57725;47.526;18.986;2023-05-08T00:10:31;100217.94;;;17.66;85.75
70314;BME280;57725;47.526;18.986;2023-05-08T00:12:56;100216.25;;;17.65;85.68
70314;BME280;57725;47.526;18.986;2023-05-08T00:15:24;100219.88;;;17.64;85.77
70314;BME280;57725;47.526;18.986;2023-05-08T00:17:49;100225.16;;;17.64;85.66
70314;BME280;57725;47.526;18.986;2023-05-08T00:20:15;100218.19;;;17.63;85.68
70314;BME280;57725;47.526;18.986;2023-05-08T00:22:40;100220.88;;;17.62;85.59
70314;BME280;57725;47.526;18.986;2023-05-08T00:25:06;100227.22;;;17.59;85.56
70314;BME280;57725;47.526;18.986;2023-05-08T00:27:33;100229.00;;;17.59;85.65
70314;BME280;57725;47.526;18.986;2023-05-08T00:30:00;100227.22;;;17.59;85.67
70314;BME280;57725;47.526;18.986;2023-05-08T00:32:26;100230.81;;;17.58;85.72
70314;BME280;57725;47.526;18.986;2023-05-08T00:34:51;100231.84;;;17.56;85.61
70314;BME280;57725;47.526;18.986;2023-05-08T00:37:17;100229.19;;;17.56;85.73
70314;BME280;57725;47.526;18.986;2023-05-08T00:39:42;100227.50;;;17.55;85.75
70314;BME280;57725;47.526;18.986;2023-05-08T00:42:17;100228.34;;;17.55;85.70
70314;BME280;57725;47.526;18.986;2023-05-08T00:44:44;100229.28;;;17.54;85.74
70314;BME280;57725;47.526;18.986;2023-05-08T00:47:15;100227.63;;;17.53;85.79
70314;BME280;57725;47.526;18.986;2023-05-08T00:49:45;100226.88;;;17.51;85.75
70314;BME280;57725;47.526;18.986;2023-05-08T00:52:13;100229.53;;;17.51;85.85
70314;BME280;57725;47.526;18.986;2023-05-08T00:54:38;100224.25;;;17.51;85.80
70314;BME280;57725;47.526;18.986;2023-05-08T00:57:07;100226.88;;;17.51;85.90
70314;BME280;57725;47.526;18.986;2023-05-08T00:59:34;100230.56;;;17.49;85.71
70314;BME280;57725;47.526;18.986;2023-05-08T01:02:08;100240.19;;;17.50;85.79
70314;BME280;57725;47.526;18.986;2023-05-08T01:04:35;100237.66;;;17.48;85.89
70314;BME280;57725;47.526;18.986;2023-05-08T01:07:03;100236.91;;;17.46;85.86
70314;BME280;57725;47.526;18.986;2023-05-08T01:09:31;100238.78;;;17.44;85.98
70314;BME280;57725;47.526;18.986;2023-05-08T01:12:20;100245.75;;;17.45;85.82
70314;BME280;57725;47.526;18.986;2023-05-08T01:17:43;100253.78;;;17.44;85.65
70314;BME280;57725;47.526;18.986;2023-05-08T01:20:18;100251.28;;;17.42;85.79
70314;BME280;57725;47.526;18.986;2023-05-08T01:32:19;100272.59;;;17.39;85.86
70314;BME280;57725;47.526;18.986;2023-05-08T01:37:21;100265.72;;;17.36;85.92
70314;BME280;57725;47.526;18.986;2023-05-08T01:40:07;100265.06;;;17.33;85.88
70314;BME280;57725;47.526;18.986;2023-05-08T01:43:02;100266.66;;;17.35;86.00
70314;BME280;57725;47.526;18.986;2023-05-08T01:45:35;100271.19;;;17.33;86.03
70314;BME280;57725;47.526;18.986;2023-05-08T01:48:05;100271.19;;;17.33;86.12
70314;BME280;57725;47.526;18.986;2023-05-08T01:50:39;100263.69;;;17.27;85.96
70314;BME280;57725;47.526;18.986;2023-05-08T01:53:33;100279.22;;;17.32;85.99
70314;BME280;57725;47.526;18.986;2023-05-08T01:56:11;100277.50;;;17.31;85.99
70314;BME280;57725;47.526;18.986;2023-05-08T01:58:44;100269.81;;;17.28;86.00
70314;BME280;57725;47.526;18.986;2023-05-08T02:01:12;100278.50;;;17.30;86.12
70314;BME280;57725;47.526;18.986;2023-05-08T02:03:40;100278.50;;;17.30;86.12
70314;BME280;57725;47.526;18.986;2023-05-08T02:06:11;100283.88;;;17.28;86.26
70314;BME280;57725;47.526;18.986;2023-05-08T02:08:40;100283.97;;;17.27;86.03
70314;BME280;57725;47.526;18.986;2023-05-08T02:11:09;100284.91;;;17.26;86.25
70314;BME280;57725;47.526;18.986;2023-05-08T02:13:36;100289.34;;;17.25;86.13
70314;BME280;57725;47.526;18.986;2023-05-08T02:16:10;100293.78;;;17.25;86.03
70314;BME280;57725;47.526;18.986;2023-05-08T02:18:38;100293.88;;;17.23;86.18
70314;BME280;57725;47.526;18.986;2023-05-08T02:21:06;100288.59;;;17.23;86.12
70314;BME280;57725;47.526;18.986;2023-05-08T02:23:37;100293.97;;;17.22;86.29
70314;BME280;57725;47.526;18.986;2023-05-08T02:26:05;100299.34;;;17.20;86.20
70314;BME280;57725;47.526;18.986;2023-05-08T02:28:32;100296.69;;;17.20;86.22
70314;BME280;57725;47.526;18.986;2023-05-08T02:30:59;100300.41;;;17.18;86.07
70314;BME280;57725;47.526;18.986;2023-05-08T02:33:26;100298.72;;;17.17;86.17
70314;BME280;57725;47.526;18.986;2023-05-08T02:35:55;100292.56;;;17.16;86.25
70314;BME280;57725;47.526;18.986;2023-05-08T02:38:22;100297.00;;;17.16;86.12
70314;BME280;57725;47.526;18.986;2023-05-08T02:40:53;100288.41;;;17.12;86.34
70314;BME280;57725;47.526;18.986;2023-05-08T02:43:22;100286.72;;;17.11;86.30
70314;BME280;57725;47.526;18.986;2023-05-08T02:45:53;100283.31;;;17.09;86.19
70314;BME280;57725;47.526;18.986;2023-05-08T02:48:37;100294.56;;;17.13;86.26
70314;BME280;57725;47.526;18.986;2023-05-08T02:53:50;100296.53;;;17.09;86.10
70314;BME280;57725;47.526;18.986;2023-05-08T02:56:24;100304.44;;;17.09;86.35
70314;BME280;57725;47.526;18.986;2023-05-08T02:58:56;100302.88;;;17.07;86.30
70314;BME280;57725;47.526;18.986;2023-05-08T03:01:27;100307.31;;;17.06;86.23
70314;BME280;57725;47.526;18.986;2023-05-08T03:04:10;100307.31;;;17.06;86.26
70314;BME280;57725;47.526;18.986;2023-05-08T03:06:43;100309.19;;;17.04;86.33
70314;BME280;57725;47.526;18.986;2023-05-08T03:09:15;100304.09;;;17.01;86.39
70314;BME280;57725;47.526;18.986;2023-05-08T03:11:46;100308.53;;;17.00;86.33
70314;BME280;57725;47.526;18.986;2023-05-08T03:14:15;100310.31;;;17.00;86.54
70314;BME280;57725;47.526;18.986;2023-05-08T03:16:45;100311.25;;;16.99;86.45
70314;BME280;57725;47.526;18.986;2023-05-08T03:19:25;100316.53;;;16.99;86.42
70314;BME280;57725;47.526;18.986;2023-05-08T03:21:53;100306.28;;;16.94;86.57
70314;BME280;57725;47.526;18.986;2023-05-08T03:24:22;100303.72;;;16.93;86.50
70314;BME280;57725;47.526;18.986;2023-05-08T03:26:50;100316.84;;;16.94;86.55
70314;BME280;57725;47.526;18.986;2023-05-08T03:29:17;100309.00;;;16.93;86.37
70314;BME280;57725;47.526;18.986;2023-05-08T03:31:43;100306.47;;;16.91;86.58
70314;BME280;57725;47.526;18.986;2023-05-08T03:34:11;100310.03;;;16.90;86.50
70314;BME280;57725;47.526;18.986;2023-05-08T03:36:36;100310.31;;;16.86;86.48
70314;BME280;57725;47.526;18.986;2023-05-08T03:39:07;100309.59;;;16.84;86.62
70314;BME280;57725;47.526;18.986;2023-05-08T03:41:35;100316.44;;;16.86;86.61
70314;BME280;57725;47.526;18.986;2023-05-08T03:44:02;100317.38;;;16.85;86.94
70314;BME280;57725;47.526;18.986;2023-05-08T03:46:30;100317.59;;;16.82;86.77
70314;BME280;57725;47.526;18.986;2023-05-08T03:48:56;100307.13;;;16.81;86.74
70314;BME280;57725;47.526;18.986;2023-05-08T03:51:25;100318.44;;;16.83;86.50
70314;BME280;57725;47.526;18.986;2023-05-08T03:53:52;100310.63;;;16.81;86.55
70314;BME280;57725;47.526;18.986;2023-05-08T03:56:22;100320.34;;;16.81;86.63
70314;BME280;57725;47.526;18.986;2023-05-08T03:59:00;100322.22;;;16.79;86.71
70314;BME280;57725;47.526;18.986;2023-05-08T04:01:37;100323.81;;;16.81;86.67
70314;BME280;57725;47.526;18.986;2023-05-08T04:09:23;100328.44;;;16.78;86.59
70314;BME280;57725;47.526;18.986;2023-05-08T04:11:55;100326.72;;;16.77;86.67
70314;BME280;57725;47.526;18.986;2023-05-08T04:14:26;100325.13;;;16.74;86.62
70314;BME280;57725;47.526;18.986;2023-05-08T04:16:59;100333.81;;;16.76;86.64
70314;BME280;57725;47.526;18.986;2023-05-08T04:19:27;100335.59;;;16.76;86.53
70314;BME280;57725;47.526;18.986;2023-05-08T04:22:05;100342.75;;;16.74;86.76
70314;BME280;57725;47.526;18.986;2023-05-08T04:24:41;100347.31;;;16.72;86.78
70314;BME280;57725;47.526;18.986;2023-05-08T04:27:08;100348.31;;;16.69;86.85
70314;BME280;57725;47.526;18.986;2023-05-08T04:29:34;100349.94;;;16.72;86.65
70314;BME280;57725;47.526;18.986;2023-05-08T04:32:00;100350.88;;;16.71;86.76
70314;BME280;57725;47.526;18.986;2023-05-08T04:34:30;100356.16;;;16.71;86.68
70314;BME280;57725;47.526;18.986;2023-05-08T04:36:56;100358.13;;;16.67;86.53
70314;BME280;57725;47.526;18.986;2023-05-08T04:39:24;100366.91;;;16.68;86.79
70314;BME280;57725;47.526;18.986;2023-05-08T04:41:49;100366.91;;;16.68;86.73
70314;BME280;57725;47.526;18.986;2023-05-08T04:44:16;100367.84;;;16.67;86.85
70314;BME280;57725;47.526;18.986;2023-05-08T04:46:46;100377.63;;;16.64;86.80
70314;BME280;57725;47.526;18.986;2023-05-08T04:49:14;100379.41;;;16.64;86.98
70314;BME280;57725;47.526;18.986;2023-05-08T04:51:41;100383.06;;;16.61;86.84
70314;BME280;57725;47.526;18.986;2023-05-08T04:54:09;100377.78;;;16.61;86.86
70314;BME280;57725;47.526;18.986;2023-05-08T04:56:35;100380.34;;;16.63;86.79
70314;BME280;57725;47.526;18.986;2023-05-08T04:59:00;100383.94;;;16.62;86.78
70314;BME280;57725;47.526;18.986;2023-05-08T05:01:26;100388.19;;;16.64;86.60
70314;BME280;57725;47.526;18.986;2023-05-08T05:03:53;100384.78;;;16.62;86.79
70314;BME280;57725;47.526;18.986;2023-05-08T05:06:21;100388.34;;;16.61;86.75
70314;BME280;57725;47.526;18.986;2023-05-08T05:08:46;100392.78;;;16.61;86.69
70314;BME280;57725;47.526;18.986;2023-05-08T05:11:12;100389.31;;;16.60;86.83
70314;BME280;57725;47.526;18.986;2023-05-08T05:13:40;100385.91;;;16.58;86.81
70314;BME280;57725;47.526;18.986;2023-05-08T05:16:08;100387.69;;;16.58;86.68
70314;BME280;57725;47.526;18.986;2023-05-08T05:18:38;100394.00;;;16.55;86.86
70314;BME280;57725;47.526;18.986;2023-05-08T05:21:03;100392.28;;;16.54;86.86
70314;BME280;57725;47.526;18.986;2023-05-08T05:23:31;100396.63;;;16.55;86.87
70314;BME280;57725;47.526;18.986;2023-05-08T05:25:57;100393.13;;;16.55;86.90
70314;BME280;57725;47.526;18.986;2023-05-08T05:28:22;100397.75;;;16.51;87.07
70314;BME280;57725;47.526;18.986;2023-05-08T05:30:48;100399.44;;;16.52;86.88
70314;BME280;57725;47.526;18.986;2023-05-08T05:33:15;100397.66;;;16.53;86.79
70314;BME280;57725;47.526;18.986;2023-05-08T05:35:43;100403.88;;;16.52;86.95
70314;BME280;57725;47.526;18.986;2023-05-08T05:38:08;100398.78;;;16.49;86.84
70314;BME280;57725;47.526;18.986;2023-05-08T05:40:36;100406.72;;;16.49;86.98
70314;BME280;57725;47.526;18.986;2023-05-08T05:43:04;100407.66;;;16.48;86.91
70314;BME280;57725;47.526;18.986;2023-05-08T05:45:30;100412.84;;;16.49;87.04
70314;BME280;57725;47.526;18.986;2023-05-08T05:47:55;100413.78;;;16.48;87.08
70314;BME280;57725;47.526;18.986;2023-05-08T05:50:23;100418.13;;;16.49;87.13
70314;BME280;57725;47.526;18.986;2023-05-08T05:52:48;100426.13;;;16.48;87.14
70314;BME280;57725;47.526;18.986;2023-05-08T05:55:14;100422.81;;;16.44;87.00
70314;BME280;57725;47.526;18.986;2023-05-08T05:57:42;100427.13;;;16.45;87.10
70314;BME280;57725;47.526;18.986;2023-05-08T06:00:10;100427.91;;;16.47;87.06
70314;BME280;57725;47.526;18.986;2023-05-08T06:02:36;100424.41;;;16.47;87.01
70314;BME280;57725;47.526;18.986;2023-05-08T06:05:02;100421.88;;;16.45;86.85
70314;BME280;57725;47.526;18.986;2023-05-08T06:07:30;100420.16;;;16.44;87.14
70314;BME280;57725;47.526;18.986;2023-05-08T06:09:58;100419.22;;;16.45;87.11
70314;BME280;57725;47.526;18.986;2023-05-08T06:12:26;100416.66;;;16.44;86.99
70314;BME280;57725;47.526;18.986;2023-05-08T06:14:55;100412.63;;;16.38;86.85
70314;BME280;57725;47.526;18.986;2023-05-08T06:17:20;100411.56;;;16.41;87.14
70314;BME280;57725;47.526;18.986;2023-05-08T06:19:46;100414.28;;;16.39;87.05
70314;BME280;57725;47.526;18.986;2023-05-08T06:22:17;100419.47;;;16.41;87.16
70314;BME280;57725;47.526;18.986;2023-05-08T06:24:43;100414.28;;;16.39;87.11
70314;BME280;57725;47.526;18.986;2023-05-08T06:27:11;100424.75;;;16.41;87.07
70314;BME280;57725;47.526;18.986;2023-05-08T06:29:39;100429.19;;;16.40;86.98
70314;BME280;57725;47.526;18.986;2023-05-08T06:32:07;100424.09;;;16.37;87.05
70314;BME280;57725;47.526;18.986;2023-05-08T06:34:32;100430.31;;;16.36;87.17
70314;BME280;57725;47.526;18.986;2023-05-08T06:37:02;100429.25;;;16.39;87.26
70314;BME280;57725;47.526;18.986;2023-05-08T06:39:27;100426.75;;;16.37;87.19
70314;BME280;57725;47.526;18.986;2023-05-08T06:42:02;100422.50;;;16.35;87.16
70314;BME280;57725;47.526;18.986;2023-05-08T06:44:36;100436.44;;;16.37;87.30
70314;BME280;57725;47.526;18.986;2023-05-08T06:47:03;100435.59;;;16.36;87.24
70314;BME280;57725;47.526;18.986;2023-05-08T06:49:29;100436.53;;;16.35;87.22
70314;BME280;57725;47.526;18.986;2023-05-08T06:52:05;100445.38;;;16.34;87.39
70314;BME280;57725;47.526;18.986;2023-05-08T06:54:33;100442.75;;;16.34;87.34
70314;BME280;57725;47.526;18.986;2023-05-08T06:56:58;100441.91;;;16.34;87.41
70314;BME280;57725;47.526;18.986;2023-05-08T06:59:24;100438.50;;;16.32;87.30
70314;BME280;57725;47.526;18.986;2023-05-08T07:01:52;100447.34;;;16.30;87.57
70314;BME280;57725;47.526;18.986;2023-05-08T07:04:17;100448.09;;;16.33;87.49
70314;BME280;57725;47.526;18.986;2023-05-08T07:06:42;100441.97;;;16.32;87.41
70314;BME280;57725;47.526;18.986;2023-05-08T07:09:10;100454.22;;;16.33;87.83
70314;BME280;57725;47.526;18.986;2023-05-08T07:11:38;100450.81;;;16.31;87.75
70314;BME280;57725;47.526;18.986;2023-05-08T07:14:06;100448.19;;;16.31;87.78
70314;BME280;57725;47.526;18.986;2023-05-08T07:16:31;100448.19;;;16.31;87.72
70314;BME280;57725;47.526;18.986;2023-05-08T07:18:57;100446.41;;;16.32;87.54
70314;BME280;57725;47.526;18.986;2023-05-08T07:21:22;100446.56;;;16.28;87.59
70314;BME280;57725;47.526;18.986;2023-05-08T07:23:47;100438.94;;;16.24;87.98
70314;BME280;57725;47.526;18.986;2023-05-08T07:26:16;100442.91;;;16.31;87.85
70314;BME280;57725;47.526;18.986;2023-05-08T07:28:41;100446.22;;;16.35;87.79
70314;BME280;57725;47.526;18.986;2023-05-08T07:31:06;100452.44;;;16.34;87.77
70314;BME280;57725;47.526;18.986;2023-05-08T07:33:34;100449.81;;;16.34;87.74
70314;BME280;57725;47.526;18.986;2023-05-08T07:36:02;100450.06;;;16.29;87.84
70314;BME280;57725;47.526;18.986;2023-05-08T07:38:28;100450.81;;;16.31;87.86
70314;BME280;57725;47.526;18.986;2023-05-08T07:40:53;100446.41;;;16.32;87.52
70314;BME280;57725;47.526;18.986;2023-05-08T07:43:28;100455.16;;;16.32;87.85
70314;BME280;57725;47.526;18.986;2023-05-08T07:45:53;100453.47;;;16.31;87.81
70314;BME280;57725;47.526;18.986;2023-05-08T07:48:19;100451.75;;;16.30;87.97
70314;BME280;57725;47.526;18.986;2023-05-08T07:50:50;100448.28;;;16.29;87.78
70314;BME280;57725;47.526;18.986;2023-05-08T07:53:16;100462.31;;;16.30;87.75
70314;BME280;57725;47.526;18.986;2023-05-08T07:55:41;100456.09;;;16.31;87.85
70314;BME280;57725;47.526;18.986;2023-05-08T07:58:09;100445.72;;;16.28;87.79
70314;BME280;57725;47.526;18.986;2023-05-08T08:00:37;100450.81;;;16.31;87.81
70314;BME280;57725;47.526;18.986;2023-05-08T08:03:03;100447.34;;;16.30;88.10
70314;BME280;57725;47.526;18.986;2023-05-08T08:05:29;100449.97;;;16.30;87.88
70314;BME280;57725;47.526;18.986;2023-05-08T08:07:59;100451.75;;;16.30;87.94
70314;BME280;57725;47.526;18.986;2023-05-08T08:10:24;100453.38;;;16.33;88.10
70314;BME280;57725;47.526;18.986;2023-05-08T08:12:52;100447.34;;;16.30;87.90
70314;BME280;57725;47.526;18.986;2023-05-08T08:15:18;100447.41;;;16.29;88.05
70314;BME280;57725;47.526;18.986;2023-05-08T08:17:45;100452.53;;;16.32;87.96
70314;BME280;57725;47.526;18.986;2023-05-08T08:20:13;100450.75;;;16.33;87.93
70314;BME280;57725;47.526;18.986;2023-05-08T08:22:41;100447.34;;;16.30;87.96
70314;BME280;57725;47.526;18.986;2023-05-08T08:25:07;100459.59;;;16.32;88.05
70314;BME280;57725;47.526;18.986;2023-05-08T08:27:33;100456.97;;;16.32;88.17
70314;BME280;57725;47.526;18.986;2023-05-08T08:29:58;100442.75;;;16.34;88.23
70314;BME280;57725;47.526;18.986;2023-05-08T08:32:23;100446.31;;;16.33;88.22
70314;BME280;57725;47.526;18.986;2023-05-08T08:34:51;100444.53;;;16.34;87.98
70314;BME280;57725;47.526;18.986;2023-05-08T08:37:19;100443.59;;;16.35;87.91
70314;BME280;57725;47.526;18.986;2023-05-08T08:39:47;100437.38;;;16.36;88.07
70314;BME280;57725;47.526;18.986;2023-05-08T08:42:13;100445.38;;;16.34;87.89
70314;BME280;57725;47.526;18.986;2023-05-08T08:44:45;100455.78;;;16.37;87.93
70314;BME280;57725;47.526;18.986;2023-05-08T08:47:10;100453.97;;;16.38;87.67
70314;BME280;57725;47.526;18.986;2023-05-08T08:49:47;100444.38;;;16.37;87.82
70314;BME280;57725;47.526;18.986;2023-05-08T08:52:31;100452.19;;;16.38;87.77
70314;BME280;57725;47.526;18.986;2023-05-08T08:55:01;100447.75;;;16.39;87.90
70314;BME280;57725;47.526;18.986;2023-05-08T08:57:31;100460.84;;;16.40;87.65
70314;BME280;57725;47.526;18.986;2023-05-08T09:00:00;100445.03;;;16.40;87.83
70314;BME280;57725;47.526;18.986;2023-05-08T09:02:30;100447.56;;;16.42;87.79
70314;BME280;57725;47.526;18.986;2023-05-08T09:05:00;100440.59;;;16.41;87.52
70314;BME280;57725;47.526;18.986;2023-05-08T09:07:26;100441.34;;;16.43;87.70
70314;BME280;57725;47.526;18.986;2023-05-08T09:09:52;100441.28;;;16.44;87.74
70314;BME280;57725;47.526;18.986;2023-05-08T09:12:23;100437.88;;;16.42;87.68
70314;BME280;57725;47.526;18.986;2023-05-08T09:14:51;100429.69;;;16.47;87.45
70314;BME280;57725;47.526;18.986;2023-05-08T09:17:17;100434.88;;;16.48;87.71
70314;BME280;57725;47.526;18.986;2023-05-08T09:19:48;100426.88;;;16.50;87.61
70314;BME280;57725;47.526;18.986;2023-05-08T09:22:18;100430.53;;;16.47;87.50
70314;BME280;57725;47.526;18.986;2023-05-08T09:24:53;100425.91;;;16.51;87.53
70314;BME280;57725;47.526;18.986;2023-05-08T09:27:21;100439.78;;;16.54;87.25
70314;BME280;57725;47.526;18.986;2023-05-08T09:30:10;100442.25;;;16.57;84.65
70314;BME280;57725;47.526;18.986;2023-05-08T09:32:41;100437.16;;;16.54;82.43
70314;BME280;57725;47.526;18.986;2023-05-08T09:35:08;100438.19;;;16.52;79.82
70314;BME280;57725;47.526;18.986;2023-05-08T09:37:40;100429.53;;;16.50;78.42
70314;BME280;57725;47.526;18.986;2023-05-08T09:40:16;100442.81;;;16.48;76.51
70314;BME280;57725;47.526;18.986;2023-05-08T09:42:42;100425.44;;;16.44;73.39
70314;BME280;57725;47.526;18.986;2023-05-08T09:45:09;100432.25;;;16.48;73.71
70314;BME280;57725;47.526;18.986;2023-05-08T09:47:34;100427.81;;;16.49;73.51
70314;BME280;57725;47.526;18.986;2023-05-08T09:50:09;100426.03;;;16.49;72.23
70314;BME280;57725;47.526;18.986;2023-05-08T09:52:37;100426.03;;;16.49;71.77
70314;BME280;57725;47.526;18.986;2023-05-08T09:57:31;100421.41;;;16.53;70.07
70314;BME280;57725;47.526;18.986;2023-05-08T10:00:10;100421.22;;;16.56;68.94
70314;BME280;57725;47.526;18.986;2023-05-08T10:02:39;100407.94;;;16.57;69.36
70314;BME280;57725;47.526;18.986;2023-05-08T10:07:54;100411.94;;;16.64;68.53
70314;BME280;57725;47.526;18.986;2023-05-08T10:10:27;100411.88;;;16.66;66.82
70314;BME280;57725;47.526;18.986;2023-05-08T10:12:56;100408.09;;;16.70;67.03
70314;BME280;57725;47.526;18.986;2023-05-08T10:15:24;100408.88;;;16.72;65.49
70314;BME280;57725;47.526;18.986;2023-05-08T10:18:02;100411.31;;;16.75;66.71
70314;BME280;57725;47.526;18.986;2023-05-08T10:20:32;100395.47;;;16.75;67.49
70314;BME280;57725;47.526;18.986;2023-05-08T10:22:59;100393.59;;;16.77;65.40
70314;BME280;57725;47.526;18.986;2023-05-08T10:25:31;100392.66;;;16.78;64.93
70314;BME280;57725;47.526;18.986;2023-05-08T10:28:32;100396.06;;;16.80;66.08
70314;BME280;57725;47.526;18.986;2023-05-08T10:31:06;100386.25;;;16.82;62.77
70314;BME280;57725;47.526;18.986;2023-05-08T10:33:38;100389.44;;;16.87;63.73
70314;BME280;57725;47.526;18.986;2023-05-08T10:36:08;100388.50;;;16.88;53.06
70314;BME280;57725;47.526;18.986;2023-05-08T10:38:37;100384.84;;;16.91;54.11
70314;BME280;57725;47.526;18.986;2023-05-08T10:41:04;100376.91;;;16.91;53.21
70314;BME280;57725;47.526;18.986;2023-05-08T10:43:31;100386.38;;;16.95;52.61
70314;BME280;57725;47.526;18.986;2023-05-08T10:46:04;100375.03;;;16.93;52.40
70314;BME280;57725;47.526;18.986;2023-05-08T10:48:47;100379.06;;;16.98;52.85
70314;BME280;57725;47.526;18.986;2023-05-08T10:51:46;100370.13;;;17.01;50.83
70314;BME280;57725;47.526;18.986;2023-05-08T10:54:23;100372.59;;;17.04;51.50
70314;BME280;57725;47.526;18.986;2023-05-08T10:56:50;100365.50;;;17.05;51.60
70314;BME280;57725;47.526;18.986;2023-05-08T10:59:19;100367.00;;;17.09;50.14
70314;BME280;57725;47.526;18.986;2023-05-08T11:01:48;100372.09;;;17.12;50.40
70314;BME280;57725;47.526;18.986;2023-05-08T11:04:21;100363.31;;;17.11;49.15
70314;BME280;57725;47.526;18.986;2023-05-08T11:06:48;100377.22;;;17.15;49.35
70314;BME280;57725;47.526;18.986;2023-05-08T11:09:46;100375.41;;;17.15;49.91
70314;BME280;57725;47.526;18.986;2023-05-08T11:15:03;100367.19;;;17.20;49.45
70314;BME280;57725;47.526;18.986;2023-05-08T11:17:31;100361.72;;;17.23;49.72
70314;BME280;57725;47.526;18.986;2023-05-08T11:19:58;100375.69;;;17.25;49.69
70314;BME280;57725;47.526;18.986;2023-05-08T11:22:28;100360.59;;;17.27;49.49
70314;BME280;57725;47.526;18.986;2023-05-08T11:28:08;100362.19;;;17.29;49.69
70314;BME280;57725;47.526;18.986;2023-05-08T11:30:36;100362.84;;;17.33;49.51
70314;BME280;57725;47.526;18.986;2023-05-08T11:38:31;100355.47;;;17.38;46.78
70314;BME280;57725;47.526;18.986;2023-05-08T11:41:41;100354.44;;;17.41;47.68
70314;BME280;57725;47.526;18.986;2023-05-08T11:46:21;100358.47;;;17.46;48.16
70314;BME280;57725;47.526;18.986;2023-05-08T11:48:47;100354.97;;;17.46;49.34
70314;BME280;57725;47.526;18.986;2023-05-08T11:51:19;100346.00;;;17.48;49.40
70314;BME280;57725;47.526;18.986;2023-05-08T11:53:55;100351.97;;;17.52;48.06
70314;BME280;57725;47.526;18.986;2023-05-08T11:56:21;100353.09;;;17.48;48.71
70314;BME280;57725;47.526;18.986;2023-05-08T11:58:47;100351.22;;;17.50;49.44
70314;BME280;57725;47.526;18.986;2023-05-08T12:01:20;100359.81;;;17.53;49.59
70314;BME280;57725;47.526;18.986;2023-05-08T12:04:01;100363.06;;;17.57;49.12
70314;BME280;57725;47.526;18.986;2023-05-08T12:06:32;100353.25;;;17.59;48.75
70314;BME280;57725;47.526;18.986;2023-05-08T12:09:01;100343.53;;;17.59;49.24
70314;BME280;57725;47.526;18.986;2023-05-08T12:11:29;100348.81;;;17.59;48.27
70314;BME280;57725;47.526;18.986;2023-05-08T12:13:56;100355.81;;;17.60;48.20
70314;BME280;57725;47.526;18.986;2023-05-08T12:16:22;100354.09;;;17.59;48.77
70314;BME280;57725;47.526;18.986;2023-05-08T12:18:49;100344.28;;;17.61;49.42
70314;BME280;57725;47.526;18.986;2023-05-08T12:21:18;100349.50;;;17.63;47.65
70314;BME280;57725;47.526;18.986;2023-05-08T12:23:45;100354.09;;;17.59;48.49
70314;BME280;57725;47.526;18.986;2023-05-08T12:26:11;100348.63;;;17.62;48.71
70314;BME280;57725;47.526;18.986;2023-05-08T12:28:36;100345.94;;;17.64;48.24
70314;BME280;57725;47.526;18.986;2023-05-08T12:31:05;100345.31;;;17.59;48.45
70314;BME280;57725;47.526;18.986;2023-05-08T12:33:34;100346.88;;;17.63;47.95
70314;BME280;57725;47.526;18.986;2023-05-08T12:36:07;100345.94;;;17.64;47.34
70314;BME280;57725;47.526;18.986;2023-05-08T12:38:35;100344.22;;;17.63;47.07
70314;BME280;57725;47.526;18.986;2023-05-08T12:41:03;100339.56;;;17.66;47.78
70314;BME280;57725;47.526;18.986;2023-05-08T12:43:34;100346.38;;;17.70;46.50
70314;BME280;57725;47.526;18.986;2023-05-08T12:46:03;100343.72;;;17.70;47.42
70314;BME280;57725;47.526;18.986;2023-05-08T12:48:30;100343.81;;;17.69;46.73
70314;BME280;57725;47.526;18.986;2023-05-08T12:51:03;100340.41;;;17.67;47.44
70314;BME280;57725;47.526;18.986;2023-05-08T12:53:31;100349.94;;;17.69;46.65
70314;BME280;57725;47.526;18.986;2023-05-08T12:56:01;100354.41;;;17.69;46.13
70314;BME280;57725;47.526;18.986;2023-05-08T12:58:33;100350.03;;;17.68;45.88
70314;BME280;57725;47.526;18.986;2023-05-08T13:01:10;100347.41;;;17.68;45.51
70314;BME280;57725;47.526;18.986;2023-05-08T13:03:40;100342.13;;;17.68;44.86
70314;BME280;57725;47.526;18.986;2023-05-08T13:06:06;100345.69;;;17.67;46.88
70314;BME280;57725;47.526;18.986;2023-05-08T13:08:36;100349.19;;;17.67;46.13
70314;BME280;57725;47.526;18.986;2023-05-08T13:11:04;100349.19;;;17.67;45.79
70314;BME280;57725;47.526;18.986;2023-05-08T13:13:32;100351.75;;;17.69;45.82
70314;BME280;57725;47.526;18.986;2023-05-08T13:16:01;100345.63;;;17.68;44.53
70314;BME280;57725;47.526;18.986;2023-05-08T13:18:27;100342.34;;;17.65;44.77
70314;BME280;57725;47.526;18.986;2023-05-08T13:20:59;100357.03;;;17.69;43.88
70314;BME280;57725;47.526;18.986;2023-05-08T13:23:26;100353.44;;;17.70;45.11
70314;BME280;57725;47.526;18.986;2023-05-08T13:25:54;100347.22;;;17.71;45.45
70314;BME280;57725;47.526;18.986;2023-05-08T13:28:22;100343.72;;;17.70;45.30
70314;BME280;57725;47.526;18.986;2023-05-08T13:30:47;100344.66;;;17.69;43.86
70314;BME280;57725;47.526;18.986;2023-05-08T13:33:13;100346.66;;;17.66;45.06